createdAt,value
2018-12-13T00:00:37.388Z,79.90
2018-12-13T00:03:05.432Z,80.25
2018-12-13T00:05:33.413Z,80.12
2018-12-13T00:08:01.416Z,80.52
2018-12-13T00:10:29.559Z,80.93
2018-12-13T00:12:57.538Z,81.11
2018-12-13T00:15:27.461Z,81.29
2018-12-13T00:17:55.432Z,81.77
2018-12-13T00:20:23.982Z,82.36
2018-12-13T00:22:52.040Z,82.15
2018-12-13T00:25:20.019Z,82.60
2018-12-13T00:27:48.122Z,81.82
2018-12-13T00:30:16.267Z,82.20
2018-12-13T00:32:44.237Z,82.22
2018-12-13T00:35:12.414Z,82.41
2018-12-13T00:37:40.362Z,82.36
2018-12-13T00:40:08.372Z,81.86
2018-12-13T00:42:36.739Z,82.49
2018-12-13T00:45:05.665Z,82.32
2018-12-13T00:47:33.748Z,82.83
2018-12-13T00:50:02.090Z,82.95
2018-12-13T00:52:30.041Z,82.89
2018-12-13T00:54:58.061Z,82.92
2018-12-13T00:57:26.025Z,83.22
2018-12-13T00:59:53.953Z,83.50
2018-12-13T01:02:22.559Z,83.60
2018-12-13T01:04:50.555Z,83.67
2018-12-13T01:07:18.477Z,83.87
2018-12-13T01:09:46.683Z,84.27
2018-12-13T01:12:14.641Z,84.70
2018-12-13T01:14:42.613Z,84.69
2018-12-13T01:17:10.570Z,84.74
2018-12-13T01:19:38.507Z,84.93
2018-12-13T01:22:06.659Z,85.21
2018-12-13T01:24:34.608Z,84.35
2018-12-13T01:27:02.584Z,84.02
2018-12-13T01:29:30.538Z,83.54
2018-12-13T01:31:58.477Z,83.36
2018-12-13T01:34:26.575Z,83.74
2018-12-13T01:36:54.596Z,83.98
2018-12-13T01:39:22.557Z,84.37
2018-12-13T01:41:50.485Z,85.50
2018-12-13T01:44:18.471Z,85.13
2018-12-13T01:46:46.412Z,85.82
2018-12-13T01:49:14.389Z,86.14
2018-12-13T01:51:42.330Z,86.62
2018-12-13T01:54:10.397Z,86.26
2018-12-13T01:56:38.338Z,86.15
2018-12-13T01:59:06.297Z,86.43
2018-12-13T02:01:34.310Z,85.77
2018-12-13T02:04:02.282Z,86.32
2018-12-13T02:06:30.349Z,86.61
2018-12-13T02:08:58.375Z,86.17
2018-12-13T02:11:26.386Z,86.38
2018-12-13T02:13:54.371Z,86.19
2018-12-13T02:16:22.325Z,85.78
2018-12-13T02:18:50.313Z,86.60
2018-12-13T02:21:18.585Z,86.29
2018-12-13T02:23:46.579Z,86.41
2018-12-13T02:26:14.529Z,86.91
2018-12-13T02:28:42.482Z,87.14
2018-12-13T02:31:10.756Z,87.48
2018-12-13T02:33:38.686Z,87.32
2018-12-13T02:36:06.695Z,87.59
2018-12-13T02:38:34.967Z,87.15
2018-12-13T02:41:03.054Z,87.52
2018-12-13T02:43:30.993Z,87.27
2018-12-13T02:45:59.012Z,86.90
2018-12-13T02:48:27.147Z,87.22
2018-12-13T02:50:55.213Z,87.59
2018-12-13T02:53:23.165Z,88.31
2018-12-13T02:55:51.127Z,88.66
2018-12-13T02:58:19.075Z,88.31
2018-12-13T03:00:47.074Z,88.22
2018-12-13T03:03:15.029Z,88.65
2018-12-13T03:05:43.019Z,88.76
2018-12-13T03:08:10.985Z,89.09
2018-12-13T03:10:38.993Z,88.65
2018-12-13T03:13:07.011Z,89.82
2018-12-13T03:15:35.066Z,89.81
2018-12-13T03:18:03.044Z,90.12
2018-12-13T03:20:31.055Z,89.79
2018-12-13T03:22:59.122Z,89.74
2018-12-13T03:25:27.232Z,89.98
2018-12-13T03:27:55.169Z,89.95
2018-12-13T03:30:23.107Z,89.93
2018-12-13T03:32:51.253Z,90.24
2018-12-13T03:35:19.626Z,90.51
2018-12-13T03:37:47.675Z,90.46
2018-12-13T03:40:15.735Z,90.39
2018-12-13T03:42:43.669Z,90.18
2018-12-13T03:45:11.670Z,90.52
2018-12-13T03:47:39.666Z,90.95
2018-12-13T03:50:07.864Z,90.87
2018-12-13T03:52:35.849Z,90.00
2018-12-13T03:55:04.145Z,89.55
2018-12-13T03:57:32.116Z,89.30
2018-12-13T04:00:00.089Z,88.81
2018-12-13T04:02:28.032Z,89.36
2018-12-13T04:04:57.190Z,88.91
2018-12-13T04:07:27.813Z,89.39
2018-12-13T04:09:55.108Z,88.91
2018-12-13T04:12:23.166Z,90.03
2018-12-13T04:14:51.180Z,89.78
2018-12-13T04:17:19.207Z,89.13
2018-12-13T04:19:47.610Z,88.95
2018-12-13T04:22:15.556Z,89.56
2018-12-13T04:24:43.524Z,90.04
2018-12-13T04:27:11.478Z,90.33
2018-12-13T04:29:39.466Z,89.98
2018-12-13T04:32:07.450Z,90.23
2018-12-13T04:34:35.404Z,90.08
2018-12-13T04:37:03.421Z,90.26
2018-12-13T04:39:31.378Z,90.04
2018-12-13T04:41:59.357Z,89.89
2018-12-13T04:44:27.307Z,92.43
2018-12-13T04:46:55.260Z,93.81
2018-12-13T04:49:23.208Z,89.77
2018-12-13T04:51:51.662Z,88.39
2018-12-13T04:54:19.687Z,88.78
2018-12-13T04:56:47.757Z,89.36
2018-12-13T04:59:15.715Z,89.10
2018-12-13T05:01:43.727Z,88.62
2018-12-13T05:04:11.679Z,89.55
2018-12-13T05:06:39.641Z,89.72
2018-12-13T05:09:07.883Z,89.87
2018-12-13T05:11:35.849Z,90.13
2018-12-13T05:14:04.037Z,90.26
2018-12-13T05:16:32.896Z,89.63
2018-12-13T05:19:00.960Z,89.90
2018-12-13T05:21:28.942Z,90.11
2018-12-13T05:23:56.937Z,89.43
2018-12-13T05:26:24.914Z,89.91
2018-12-13T05:28:52.864Z,89.54
2018-12-13T05:31:20.817Z,88.88
2018-12-13T05:33:48.825Z,89.02
2018-12-13T05:36:16.805Z,88.84
2018-12-13T05:38:44.763Z,90.97
2018-12-13T05:41:12.733Z,92.56
2018-12-13T05:43:40.725Z,91.46
2018-12-13T05:46:08.677Z,89.81
2018-12-13T05:48:36.685Z,89.12
2018-12-13T05:51:04.630Z,87.68
2018-12-13T05:53:32.657Z,88.20
2018-12-13T05:56:00.614Z,87.85
2018-12-13T05:58:28.581Z,87.66
2018-12-13T06:00:56.900Z,86.73
2018-12-13T06:03:24.950Z,86.72
2018-12-13T06:05:52.927Z,86.45
2018-12-13T06:08:20.869Z,86.63
2018-12-13T06:10:48.819Z,86.73
2018-12-13T06:13:16.877Z,87.49
2018-12-13T06:15:44.846Z,87.17
2018-12-13T06:18:13.038Z,87.30
2018-12-13T06:20:40.973Z,87.06
2018-12-13T06:23:08.931Z,86.79
2018-12-13T06:25:36.903Z,86.88
2018-12-13T06:28:04.904Z,87.14
2018-12-13T06:30:32.858Z,87.32
2018-12-13T06:33:00.799Z,87.44
2018-12-13T06:35:28.947Z,87.61
2018-12-13T06:38:01.265Z,87.57
2018-12-13T06:40:26.979Z,88.21
2018-12-13T06:42:54.962Z,87.98
2018-12-13T06:45:22.898Z,87.95
2018-12-13T06:47:51.609Z,87.92
2018-12-13T06:50:19.721Z,88.18
2018-12-13T06:52:47.823Z,88.45
2018-12-13T06:55:15.897Z,87.80
2018-12-13T06:57:43.859Z,87.94
2018-12-13T07:00:11.853Z,88.56
2018-12-13T07:02:39.829Z,88.55
2018-12-13T07:05:07.810Z,88.77
2018-12-13T07:07:36.580Z,88.59
2018-12-13T07:10:04.573Z,89.26
2018-12-13T07:12:32.670Z,89.70
2018-12-13T07:15:01.266Z,89.68
2018-12-13T07:17:29.433Z,89.72
2018-12-13T07:19:57.686Z,89.99
2018-12-13T07:22:25.595Z,90.08
2018-12-13T07:24:53.549Z,89.94
2018-12-13T07:27:21.569Z,90.05
2018-12-13T07:29:49.586Z,90.39
2018-12-13T07:32:17.537Z,90.25
2018-12-13T07:34:45.728Z,90.67
2018-12-13T07:37:13.717Z,90.34
2018-12-13T07:39:41.787Z,90.15
2018-12-13T07:42:10.562Z,90.70
2018-12-13T07:44:38.548Z,90.34
2018-12-13T07:47:06.495Z,90.56
2018-12-13T07:49:34.714Z,90.26
2018-12-13T07:52:02.742Z,90.52
2018-12-13T07:54:30.825Z,89.87
2018-12-13T07:56:58.765Z,90.40
2018-12-13T07:59:26.858Z,89.61
2018-12-13T08:01:54.968Z,89.60
2018-12-13T08:04:23.007Z,90.27
2018-12-13T08:06:51.550Z,90.07
2018-12-13T08:09:19.788Z,90.05
2018-12-13T08:11:47.763Z,89.88
2018-12-13T08:14:15.878Z,90.13
2018-12-13T08:16:43.869Z,90.29
2018-12-13T08:19:11.827Z,90.51
2018-12-13T08:21:39.851Z,90.00
2018-12-13T08:24:07.791Z,90.51
2018-12-13T08:26:35.737Z,90.16
2018-12-13T08:29:03.733Z,90.10
2018-12-13T08:31:31.690Z,90.55
2018-12-13T08:33:59.645Z,90.55
2018-12-13T08:36:27.632Z,90.61
2018-12-13T08:38:55.575Z,90.85
2018-12-13T08:41:23.651Z,90.52
2018-12-13T08:43:51.645Z,89.62
2018-12-13T08:46:19.589Z,89.94
2018-12-13T08:48:47.537Z,89.17
2018-12-13T08:51:15.566Z,89.59
2018-12-13T08:53:43.527Z,90.07
2018-12-13T08:56:11.531Z,89.49
2018-12-13T08:58:40.397Z,89.57
2018-12-13T09:01:08.409Z,89.89
2018-12-13T09:03:36.374Z,89.97
2018-12-13T09:06:04.367Z,91.15
2018-12-13T09:08:33.763Z,93.16
2018-12-13T09:11:01.894Z,90.78
2018-12-13T09:13:29.857Z,89.58
2018-12-13T09:15:57.863Z,90.26
2018-12-13T09:18:26.606Z,91.05
2018-12-13T09:20:54.549Z,88.63
2018-12-13T09:23:22.537Z,90.75
2018-12-13T09:25:50.505Z,88.72
2018-12-13T09:28:18.547Z,87.41
2018-12-13T09:30:46.630Z,88.20
2018-12-13T09:33:15.166Z,87.27
2018-12-13T09:35:43.150Z,90.34
2018-12-13T09:38:11.109Z,86.40
2018-12-13T09:40:39.132Z,87.03
2018-12-13T09:43:07.817Z,86.06
2018-12-13T09:45:35.773Z,86.10
2018-12-13T09:48:03.771Z,85.75
2018-12-13T09:50:31.737Z,87.43
2018-12-13T09:52:59.751Z,86.04
2018-12-13T09:55:27.734Z,85.12
2018-12-13T09:57:55.749Z,83.52
2018-12-13T10:00:23.689Z,86.24
2018-12-13T10:02:51.686Z,84.92
2018-12-13T10:05:19.667Z,83.34
2018-12-13T10:07:47.615Z,85.67
2018-12-13T10:10:15.596Z,82.63
2018-12-13T10:12:43.593Z,84.73
2018-12-13T10:15:11.555Z,83.82
2018-12-13T10:17:39.569Z,83.37
2018-12-13T10:20:08.512Z,83.97
2018-12-13T10:22:37.063Z,83.87
2018-12-13T10:25:05.348Z,82.39
2018-12-13T10:27:33.450Z,83.37
2018-12-13T10:30:01.412Z,84.42
2018-12-13T10:32:29.429Z,84.27
2018-12-13T10:34:57.414Z,84.98
2018-12-13T10:37:25.434Z,83.94
2018-12-13T10:39:53.410Z,84.33
2018-12-13T10:42:21.384Z,83.89
2018-12-13T10:44:49.658Z,84.47
2018-12-13T10:47:17.801Z,83.41
2018-12-13T10:49:45.719Z,84.21
2018-12-13T10:52:13.709Z,83.19
2018-12-13T10:54:41.687Z,84.44
2018-12-13T10:57:09.671Z,82.76
2018-12-13T10:59:37.611Z,83.21
2018-12-13T11:02:07.722Z,82.64
2018-12-13T11:04:36.182Z,83.64
2018-12-13T11:07:04.275Z,83.03
2018-12-13T11:09:32.285Z,83.02
2018-12-13T11:12:00.270Z,83.18
2018-12-13T11:14:28.227Z,82.05
2018-12-13T11:16:56.569Z,80.55
2018-12-13T11:19:24.530Z,80.67
2018-12-13T11:21:52.510Z,80.04
2018-12-13T11:24:20.513Z,80.95
2018-12-13T11:26:48.489Z,81.39
2018-12-13T11:29:30.215Z,82.25
2018-12-13T11:31:58.161Z,80.93
2018-12-13T11:34:26.102Z,81.44
2018-12-13T11:36:54.089Z,81.80
2018-12-13T11:39:22.039Z,81.18
2018-12-13T11:41:50.090Z,81.16
2018-12-13T11:44:18.100Z,82.68
2018-12-13T11:46:46.324Z,81.20
2018-12-13T11:49:14.318Z,80.65
2018-12-13T11:51:42.293Z,81.30
2018-12-13T11:54:14.176Z,81.25
2018-12-13T11:56:42.234Z,80.71
2018-12-13T11:59:10.165Z,81.54
2018-12-13T12:01:38.299Z,80.39
2018-12-13T12:04:06.382Z,80.94
2018-12-13T12:06:34.343Z,81.12
2018-12-13T12:09:02.303Z,82.09
2018-12-13T12:11:30.396Z,80.96
2018-12-13T12:13:58.342Z,81.76
2018-12-13T12:16:26.318Z,82.74
2018-12-13T12:18:54.338Z,80.59
2018-12-13T12:21:22.282Z,80.83
2018-12-13T12:23:50.226Z,80.33
2018-12-13T12:26:18.164Z,81.04
2018-12-13T12:28:46.125Z,80.03
2018-12-13T12:31:14.056Z,79.16
2018-12-13T12:33:42.017Z,79.06
2018-12-13T12:36:10.088Z,78.42
2018-12-13T12:38:38.041Z,78.74
2018-12-13T12:41:06.071Z,78.96
2018-12-13T12:43:34.118Z,79.62
2018-12-13T12:46:02.150Z,78.35
2018-12-13T12:48:30.127Z,78.58
2018-12-13T12:50:58.120Z,79.42
2018-12-13T12:53:26.159Z,78.17
2018-12-13T12:55:54.124Z,79.61
2018-12-13T12:58:22.114Z,79.08
2018-12-13T13:00:50.062Z,78.10
2018-12-13T13:03:18.017Z,78.75
2018-12-13T13:05:46.583Z,77.25
2018-12-13T13:08:14.635Z,77.50
2018-12-13T13:10:42.573Z,77.39
2018-12-13T13:13:10.627Z,77.77
2018-12-13T13:15:38.570Z,77.87
2018-12-13T13:18:06.645Z,77.90
2018-12-13T13:20:35.383Z,78.45
2018-12-13T13:23:03.434Z,79.23
2018-12-13T13:25:31.390Z,78.79
2018-12-13T13:28:00.240Z,79.70
2018-12-13T13:30:28.316Z,78.35
2018-12-13T13:32:56.256Z,79.66
2018-12-13T13:35:24.215Z,79.25
2018-12-13T13:37:52.154Z,78.38
2018-12-13T13:40:20.358Z,78.07
2018-12-13T13:42:48.302Z,78.50
2018-12-13T13:45:16.288Z,77.68
2018-12-13T13:47:44.218Z,77.18
2018-12-13T13:50:12.281Z,78.77
2018-12-13T13:52:40.286Z,78.03
2018-12-13T13:55:08.549Z,79.96
2018-12-13T13:57:36.503Z,78.84
2018-12-13T14:00:06.922Z,79.09
2018-12-13T14:02:35.779Z,78.78
2018-12-13T14:05:05.180Z,79.16
2018-12-13T14:07:33.161Z,81.66
2018-12-13T14:10:01.135Z,82.21
2018-12-13T14:12:29.100Z,81.54
2018-12-13T14:14:59.637Z,80.19
2018-12-13T14:17:27.610Z,80.29
2018-12-13T14:19:55.768Z,79.96
2018-12-13T14:22:23.682Z,78.93
2018-12-13T14:24:51.660Z,78.73
2018-12-13T14:27:19.703Z,77.62
2018-12-13T14:29:47.829Z,78.19
2018-12-13T14:32:15.771Z,77.47
2018-12-13T14:34:43.823Z,77.65
2018-12-13T14:37:11.736Z,77.58
2018-12-13T14:39:44.374Z,77.03
2018-12-13T14:42:10.081Z,77.33
2018-12-13T14:44:38.125Z,76.45
2018-12-13T14:47:06.103Z,75.10
2018-12-13T14:49:34.156Z,76.25
2018-12-13T14:52:02.235Z,76.26
2018-12-13T14:54:30.248Z,77.71
2018-12-13T14:56:58.176Z,77.48
2018-12-13T14:59:26.195Z,77.46
2018-12-13T15:01:54.173Z,78.17
2018-12-13T15:04:22.212Z,79.67
2018-12-13T15:06:50.205Z,79.74
2018-12-13T15:09:18.983Z,80.33
2018-12-13T15:11:46.915Z,79.69
2018-12-13T15:14:14.911Z,79.74
2018-12-13T15:16:43.050Z,81.17
2018-12-13T15:19:11.281Z,79.80
2018-12-13T15:21:39.250Z,81.78
2018-12-13T15:24:07.264Z,83.09
2018-12-13T15:26:35.415Z,79.51
2018-12-13T15:29:03.383Z,77.50
2018-12-13T15:31:31.459Z,79.06
2018-12-13T15:33:59.457Z,77.78
2018-12-13T15:36:27.446Z,79.21
2018-12-13T15:38:55.394Z,76.55
2018-12-13T15:41:23.433Z,79.25
2018-12-13T15:43:51.773Z,81.29
2018-12-13T15:46:19.797Z,79.43
2018-12-13T15:48:47.749Z,79.16
2018-12-13T15:51:15.741Z,77.35
2018-12-13T15:53:43.754Z,77.21
2018-12-13T15:56:11.894Z,77.09
2018-12-13T15:58:39.914Z,78.03
2018-12-13T16:01:08.145Z,77.68
2018-12-13T16:03:36.087Z,77.61
2018-12-13T16:06:04.083Z,77.66
2018-12-13T16:08:32.054Z,76.50
2018-12-13T16:11:00.024Z,78.20
2018-12-13T16:13:28.023Z,80.53
2018-12-13T16:15:56.031Z,79.72
2018-12-13T16:18:24.235Z,77.83
2018-12-13T16:20:52.945Z,80.01
2018-12-13T16:23:21.079Z,79.06
2018-12-13T16:25:49.092Z,78.77
2018-12-13T16:28:17.108Z,79.67
2018-12-13T16:30:45.185Z,79.27
2018-12-13T16:33:13.221Z,78.48
2018-12-13T16:35:41.282Z,79.19
2018-12-13T16:38:09.219Z,81.31
2018-12-13T16:40:37.202Z,79.37
2018-12-13T16:43:05.695Z,79.03
2018-12-13T16:45:33.667Z,80.36
2018-12-13T16:48:01.629Z,79.21
2018-12-13T16:50:29.692Z,80.03
2018-12-13T16:52:57.718Z,80.51
2018-12-13T16:55:25.663Z,80.77
2018-12-13T16:57:53.618Z,79.90
2018-12-13T17:00:21.629Z,79.11
2018-12-13T17:02:49.661Z,79.07
2018-12-13T17:05:17.648Z,79.39
2018-12-13T17:07:45.673Z,79.82
2018-12-13T17:10:16.672Z,80.17
2018-12-13T17:12:43.818Z,79.58
2018-12-13T17:15:13.170Z,79.70
2018-12-13T17:17:41.148Z,80.15
2018-12-13T17:20:09.260Z,82.18
2018-12-13T17:22:38.114Z,82.06
2018-12-13T17:25:06.162Z,78.71
2018-12-13T17:27:34.118Z,81.60
2018-12-13T17:30:03.270Z,78.91
2018-12-13T17:32:31.241Z,79.00
2018-12-13T17:34:59.521Z,79.63
2018-12-13T17:37:27.515Z,78.31
2018-12-13T17:39:55.517Z,78.16
2018-12-13T17:42:23.468Z,79.78
2018-12-13T17:44:51.520Z,78.14
2018-12-13T17:47:19.471Z,77.50
2018-12-13T17:49:47.504Z,78.62
2018-12-13T17:52:15.648Z,78.59
2018-12-13T17:54:43.615Z,79.03
2018-12-13T17:57:11.648Z,79.20
2018-12-13T17:59:39.699Z,76.20
2018-12-13T18:02:08.050Z,76.04
2018-12-13T18:04:36.030Z,77.84
2018-12-13T18:07:04.099Z,76.34
2018-12-13T18:09:32.111Z,77.96
2018-12-13T18:12:00.546Z,76.62
2018-12-13T18:14:28.537Z,77.42
2018-12-13T18:16:56.564Z,78.10
2018-12-13T18:19:24.544Z,80.70
2018-12-13T18:21:52.507Z,79.77
2018-12-13T18:24:20.467Z,80.66
2018-12-13T18:26:48.450Z,80.16
2018-12-13T18:29:16.402Z,80.84
2018-12-13T18:31:44.500Z,80.09
2018-12-13T18:34:12.440Z,80.61
2018-12-13T18:36:40.405Z,80.44
2018-12-13T18:39:08.495Z,80.25
2018-12-13T18:41:36.551Z,80.48
2018-12-13T18:44:05.395Z,80.35
2018-12-13T18:46:33.398Z,79.52
2018-12-13T18:49:01.371Z,78.88
2018-12-13T18:51:29.371Z,80.05
2018-12-13T18:53:57.328Z,80.27
2018-12-13T18:56:25.322Z,80.01
2018-12-13T18:58:53.295Z,80.00
2018-12-13T19:01:21.259Z,79.96
2018-12-13T19:03:49.282Z,79.44
2018-12-13T19:06:17.286Z,79.40
2018-12-13T19:08:45.272Z,79.86
2018-12-13T19:11:13.272Z,80.11
2018-12-13T19:13:41.550Z,80.56
2018-12-13T19:16:09.519Z,80.81
2018-12-13T19:18:37.456Z,81.14
2018-12-13T19:21:05.436Z,81.62
2018-12-13T19:23:34.220Z,81.12
2018-12-13T19:26:02.253Z,80.63
2018-12-13T19:28:30.939Z,81.24
2018-12-13T19:30:58.975Z,80.66
2018-12-13T19:33:26.922Z,80.37
2018-12-13T19:35:55.690Z,85.00
2018-12-13T19:38:23.626Z,84.02
2018-12-13T19:40:52.348Z,82.99
2018-12-13T19:43:20.315Z,83.04
2018-12-13T19:45:48.430Z,81.18
2018-12-13T19:48:16.577Z,82.26
2018-12-13T19:50:45.095Z,81.85
2018-12-13T19:53:13.506Z,82.30
2018-12-13T19:55:41.612Z,82.92
2018-12-13T19:58:09.550Z,82.79
2018-12-13T20:00:37.949Z,82.79
2018-12-13T20:03:06.845Z,82.20
2018-12-13T20:05:35.021Z,81.94
2018-12-13T20:08:03.112Z,81.83
2018-12-13T20:10:31.177Z,82.07
2018-12-13T20:12:59.147Z,81.80
2018-12-13T20:15:28.075Z,82.12
2018-12-13T20:17:57.330Z,80.57
2018-12-13T20:20:25.847Z,80.76
2018-12-13T20:22:53.771Z,81.20
2018-12-13T20:25:21.735Z,81.99
2018-12-13T20:27:49.738Z,83.43
2018-12-13T20:30:18.474Z,82.23
2018-12-13T20:32:46.455Z,81.52
2018-12-13T20:35:14.812Z,80.32
2018-12-13T20:37:42.814Z,80.01
2018-12-13T20:40:10.831Z,80.19
2018-12-13T20:42:39.963Z,80.48
2018-12-13T20:45:07.969Z,80.87
2018-12-13T20:47:36.530Z,80.26
2018-12-13T20:50:05.914Z,79.54
2018-12-13T20:52:33.878Z,80.42
2018-12-13T20:55:01.835Z,80.52
2018-12-13T20:57:29.939Z,80.41
2018-12-13T20:59:57.902Z,80.77
2018-12-13T21:02:25.861Z,81.80
2018-12-13T21:04:53.806Z,81.95
2018-12-13T21:07:27.321Z,81.50
2018-12-13T21:09:55.539Z,81.00
2018-12-13T21:12:23.759Z,80.22
2018-12-13T21:14:52.106Z,81.31
2018-12-13T21:17:20.089Z,80.65
2018-12-13T21:19:48.034Z,80.28
2018-12-13T21:22:16.149Z,81.83
2018-12-13T21:24:44.215Z,81.51
2018-12-13T21:27:12.585Z,82.15
2018-12-13T21:29:41.588Z,81.20
2018-12-13T21:32:10.057Z,81.47
2018-12-13T21:34:39.254Z,80.28
2018-12-13T21:37:07.238Z,79.69
2018-12-13T21:39:36.590Z,80.44
2018-12-13T21:42:05.039Z,81.15
2018-12-13T21:44:37.687Z,82.38
2018-12-13T21:47:07.431Z,82.41
2018-12-13T21:49:35.758Z,81.64
2018-12-13T21:52:04.012Z,81.15
2018-12-13T21:54:32.072Z,81.60
2018-12-13T21:57:00.642Z,82.72
2018-12-13T21:59:29.050Z,82.54
2018-12-13T22:01:57.427Z,82.02
2018-12-13T22:04:25.586Z,81.47
2018-12-13T22:06:53.572Z,81.19
2018-12-13T22:09:21.497Z,81.51
2018-12-13T22:11:49.513Z,82.92
2018-12-13T22:14:17.562Z,82.89
2018-12-13T22:16:45.638Z,82.78
2018-12-13T22:19:13.725Z,82.02
2018-12-13T22:21:42.209Z,81.16
2018-12-13T22:24:10.154Z,81.39
2018-12-13T22:26:39.149Z,81.49
2018-12-13T22:29:07.098Z,80.11
2018-12-13T22:31:35.113Z,82.05
2018-12-13T22:34:03.125Z,81.23
2018-12-13T22:36:31.130Z,79.77
2018-12-13T22:38:59.148Z,79.63
2018-12-13T22:41:27.307Z,79.07
2018-12-13T22:43:55.280Z,79.80
2018-12-13T22:46:23.244Z,80.56
2018-12-13T22:48:51.209Z,79.06
2018-12-13T22:51:19.250Z,80.67
2018-12-13T22:53:47.200Z,81.60
2018-12-13T22:56:15.426Z,81.18
2018-12-13T22:58:43.624Z,81.47
2018-12-13T23:01:11.671Z,80.80
2018-12-13T23:03:39.750Z,81.62
2018-12-13T23:06:07.933Z,79.61
2018-12-13T23:08:35.893Z,80.29
2018-12-13T23:11:05.166Z,80.41
2018-12-13T23:13:34.085Z,80.79
2018-12-13T23:16:02.652Z,80.73
2018-12-13T23:18:30.984Z,81.15
2018-12-13T23:20:58.910Z,80.89
2018-12-13T23:23:27.902Z,81.99
2018-12-13T23:25:55.913Z,81.95
2018-12-13T23:28:24.355Z,82.83
2018-12-13T23:30:52.309Z,82.17
2018-12-13T23:33:20.413Z,81.81
2018-12-13T23:35:48.373Z,81.90
2018-12-13T23:38:16.387Z,82.83
2018-12-13T23:40:44.306Z,82.25
2018-12-13T23:43:12.862Z,82.58
2018-12-13T23:45:41.412Z,83.23
2018-12-13T23:48:09.995Z,83.24
2018-12-13T23:50:37.894Z,83.50
2018-12-13T23:53:06.406Z,84.97
2018-12-13T23:55:34.398Z,85.11
2018-12-13T23:58:03.801Z,85.46
